createdAt,value
2019-01-03T00:01:50.814Z,64.96
2019-01-03T00:04:37.737Z,65.72
2019-01-03T00:07:25.327Z,66.18
2019-01-03T00:10:11.857Z,66.58
2019-01-03T00:13:17.923Z,66.79
2019-01-03T00:16:06.059Z,66.59
2019-01-03T00:18:56.734Z,66.78
2019-01-03T00:21:44.943Z,67.26
2019-01-03T00:24:44.486Z,67.59
2019-01-03T00:27:35.309Z,68.27
2019-01-03T00:30:26.353Z,68.70
2019-01-03T00:33:07.816Z,69.04
2019-01-03T00:35:55.413Z,69.73
2019-01-03T00:38:49.021Z,69.43
2019-01-03T00:41:37.575Z,70.30
2019-01-03T00:44:41.591Z,70.79
2019-01-03T00:47:29.479Z,70.83
2019-01-03T00:50:15.892Z,70.51
2019-01-03T00:53:06.507Z,71.36
2019-01-03T00:55:52.784Z,71.70
2019-01-03T00:58:58.853Z,71.81
2019-01-03T01:01:52.112Z,71.62
2019-01-03T01:04:42.953Z,72.41
2019-01-03T01:07:29.472Z,72.40
2019-01-03T01:10:16.526Z,72.50
2019-01-03T01:13:02.744Z,72.77
2019-01-03T01:15:48.809Z,73.29
2019-01-03T01:18:39.714Z,73.16
2019-01-03T01:21:42.612Z,73.16
2019-01-03T01:24:30.826Z,73.01
2019-01-03T01:27:18.420Z,73.39
2019-01-03T01:30:15.357Z,73.26
2019-01-03T01:33:17.214Z,73.38
2019-01-03T01:36:11.305Z,73.65
2019-01-03T01:38:52.806Z,73.44
2019-01-03T01:41:39.831Z,73.54
2019-01-03T01:44:36.382Z,73.63
2019-01-03T01:47:24.032Z,73.68
2019-01-03T01:50:10.498Z,73.47
2019-01-03T01:52:57.902Z,73.51
2019-01-03T01:55:49.138Z,73.83
2019-01-03T01:58:36.974Z,73.71
2019-01-03T02:01:31.085Z,73.70
2019-01-03T02:04:17.037Z,73.61
2019-01-03T02:07:07.458Z,73.82
2019-01-03T02:09:51.483Z,73.70
2019-01-03T02:12:38.642Z,73.45
2019-01-03T02:15:29.188Z,73.56
2019-01-03T02:18:17.397Z,73.92
2019-01-03T02:21:11.314Z,73.67
2019-01-03T02:24:05.360Z,74.08
2019-01-03T02:26:51.742Z,73.82
2019-01-03T02:29:38.334Z,74.09
2019-01-03T02:32:14.991Z,74.04
2019-01-03T02:35:05.262Z,73.40
2019-01-03T02:38:00.125Z,73.42
2019-01-03T02:40:46.386Z,73.51
2019-01-03T02:43:40.122Z,73.46
2019-01-03T02:46:30.499Z,73.59
2019-01-03T02:49:17.193Z,74.17
2019-01-03T02:51:56.223Z,74.43
2019-01-03T02:54:56.186Z,73.59
2019-01-03T02:57:53.482Z,73.66
2019-01-03T03:00:40.464Z,73.42
2019-01-03T03:03:43.645Z,72.91
2019-01-03T03:06:30.569Z,73.67
2019-01-03T03:09:22.092Z,73.84
2019-01-03T03:12:06.421Z,73.61
2019-01-03T03:14:57.353Z,73.52
2019-01-03T03:17:45.041Z,72.78
2019-01-03T03:20:31.531Z,72.30
2019-01-03T03:23:25.105Z,72.13
2019-01-03T03:26:27.789Z,71.93
2019-01-03T03:29:15.581Z,71.58
2019-01-03T03:32:02.084Z,71.44
2019-01-03T03:34:49.108Z,71.12
2019-01-03T03:37:48.845Z,70.83
2019-01-03T03:40:54.660Z,71.05
2019-01-03T03:43:41.987Z,71.29
2019-01-03T03:46:22.729Z,70.97
2019-01-03T03:49:19.555Z,70.89
2019-01-03T03:52:19.197Z,70.68
2019-01-03T03:55:22.110Z,70.44
2019-01-03T03:58:08.547Z,70.35
2019-01-03T04:00:56.258Z,70.45
2019-01-03T04:03:47.149Z,69.92
2019-01-03T04:06:46.980Z,70.22
2019-01-03T04:09:33.870Z,69.81
2019-01-03T04:12:23.986Z,69.56
2019-01-03T04:15:10.347Z,69.28
2019-01-03T04:17:58.315Z,69.41
2019-01-03T04:20:46.628Z,69.07
2019-01-03T04:23:52.579Z,68.98
2019-01-03T04:26:46.245Z,68.65
2019-01-03T04:29:36.625Z,69.34
2019-01-03T04:32:36.836Z,68.61
2019-01-03T04:35:24.109Z,68.65
2019-01-03T04:38:20.334Z,68.13
2019-01-03T04:41:07.052Z,68.60
2019-01-03T04:43:50.379Z,68.43
2019-01-03T04:46:37.191Z,68.46
2019-01-03T04:49:30.496Z,68.56
2019-01-03T04:52:21.078Z,68.47
2019-01-03T04:55:07.533Z,68.50
2019-01-03T04:57:55.468Z,68.08
2019-01-03T05:00:45.776Z,68.16
2019-01-03T05:03:36.065Z,67.65
2019-01-03T05:06:23.695Z,67.77
2019-01-03T05:09:09.962Z,67.70
2019-01-03T05:12:01.216Z,67.62
2019-01-03T05:14:53.050Z,67.08
2019-01-03T05:17:39.564Z,67.13
2019-01-03T05:20:30.465Z,66.92
2019-01-03T05:23:16.962Z,66.47
2019-01-03T05:26:05.625Z,66.78
2019-01-03T05:28:58.799Z,66.88
2019-01-03T05:32:05.003Z,67.11
2019-01-03T05:34:51.208Z,67.50
2019-01-03T05:37:32.833Z,67.14
2019-01-03T05:40:19.434Z,66.99
2019-01-03T05:43:05.770Z,67.44
2019-01-03T05:45:49.905Z,68.76
2019-01-03T05:48:50.429Z,69.29
2019-01-03T05:51:35.798Z,69.86
2019-01-03T05:54:27.378Z,68.80
2019-01-03T05:57:13.777Z,68.35
2019-01-03T06:00:10.704Z,68.80
2019-01-03T06:02:56.497Z,69.80
2019-01-03T06:05:47.355Z,70.91
2019-01-03T06:08:53.427Z,70.52
2019-01-03T06:11:39.651Z,70.43
2019-01-03T06:14:30.068Z,70.71
2019-01-03T06:17:23.778Z,70.94
2019-01-03T06:20:30.055Z,71.26
2019-01-03T06:23:17.061Z,72.09
2019-01-03T06:26:16.646Z,71.89
2019-01-03T06:29:02.744Z,71.86
2019-01-03T06:31:49.065Z,72.11
2019-01-03T06:34:35.572Z,72.28
2019-01-03T06:37:20.756Z,71.67
2019-01-03T06:40:20.741Z,71.77
2019-01-03T06:43:20.352Z,71.92
2019-01-03T06:46:08.377Z,71.98
2019-01-03T06:49:14.534Z,72.16
2019-01-03T06:52:15.972Z,72.29
2019-01-03T06:55:02.331Z,73.63
2019-01-03T06:57:48.499Z,74.29
2019-01-03T07:00:38.928Z,74.08
2019-01-03T07:03:27.027Z,75.25
2019-01-03T07:06:30.219Z,76.13
2019-01-03T07:09:30.612Z,76.26
2019-01-03T07:12:16.190Z,76.86
2019-01-03T07:15:02.428Z,77.54
2019-01-03T07:17:44.083Z,77.66
2019-01-03T07:20:34.724Z,77.49
2019-01-03T07:23:21.194Z,76.58
2019-01-03T07:26:11.824Z,76.28
2019-01-03T07:29:08.714Z,75.57
2019-01-03T07:31:53.000Z,75.15
2019-01-03T07:34:39.644Z,75.01
2019-01-03T07:37:25.469Z,75.32
2019-01-03T07:40:13.940Z,74.88
2019-01-03T07:43:10.941Z,75.27
2019-01-03T07:45:55.554Z,75.91
2019-01-03T07:48:42.297Z,76.13
2019-01-03T07:51:30.833Z,75.17
2019-01-03T07:54:17.175Z,75.42
2019-01-03T07:57:10.856Z,76.18
2019-01-03T07:59:57.637Z,76.09
2019-01-03T08:02:48.155Z,74.95
2019-01-03T08:05:43.703Z,74.81
2019-01-03T08:08:34.793Z,74.37
2019-01-03T08:11:34.493Z,73.03
2019-01-03T08:14:24.915Z,72.68
2019-01-03T08:17:12.209Z,71.79
2019-01-03T08:19:57.655Z,71.90
2019-01-03T08:22:51.572Z,72.84
2019-01-03T08:25:37.985Z,72.64
2019-01-03T08:28:31.911Z,73.56
2019-01-03T08:31:22.706Z,72.68
2019-01-03T08:34:22.689Z,72.14
2019-01-03T08:37:28.759Z,71.84
2019-01-03T08:40:15.038Z,71.91
2019-01-03T08:43:26.939Z,71.66
2019-01-03T08:46:09.909Z,71.39
2019-01-03T08:49:09.417Z,71.76
2019-01-03T08:51:59.561Z,70.90
2019-01-03T08:54:51.090Z,69.75
2019-01-03T08:57:49.669Z,70.08
2019-01-03T09:00:36.294Z,69.35
2019-01-03T09:03:26.738Z,69.11
2019-01-03T09:06:29.690Z,69.02
2019-01-03T09:09:16.149Z,65.93
2019-01-03T09:12:03.710Z,64.78
2019-01-03T09:14:59.898Z,64.31
2019-01-03T09:17:46.431Z,64.15
2019-01-03T09:20:31.401Z,64.47
2019-01-03T09:23:23.609Z,63.87
2019-01-03T09:26:29.244Z,63.38
2019-01-03T09:29:17.824Z,62.87
2019-01-03T09:32:00.405Z,61.92
2019-01-03T09:34:51.312Z,62.02
2019-01-03T09:37:51.258Z,61.46
2019-01-03T09:40:37.865Z,61.11
2019-01-03T09:43:25.428Z,60.11
2019-01-03T09:45:54.892Z,60.17
2019-01-03T09:48:23.353Z,60.48
2019-01-03T09:50:51.350Z,60.24
2019-01-03T09:53:19.306Z,59.46
2019-01-03T09:55:47.626Z,59.72
2019-01-03T09:58:15.798Z,60.17
2019-01-03T10:00:43.742Z,59.67
2019-01-03T10:03:13.701Z,59.98
2019-01-03T10:05:41.893Z,59.91
2019-01-03T10:08:09.798Z,59.75
2019-01-03T10:10:37.774Z,59.80
2019-01-03T10:13:06.086Z,58.46
2019-01-03T10:15:34.948Z,58.45
2019-01-03T10:18:03.244Z,56.90
2019-01-03T10:20:31.512Z,56.75
2019-01-03T10:22:59.607Z,55.92
2019-01-03T10:25:27.820Z,56.38
2019-01-03T10:27:56.268Z,56.04
2019-01-03T10:30:24.663Z,54.61
2019-01-03T10:32:52.941Z,55.34
2019-01-03T10:35:21.244Z,54.68
2019-01-03T10:37:49.524Z,55.74
2019-01-03T10:40:17.546Z,55.64
2019-01-03T10:42:46.602Z,55.42
2019-01-03T10:45:14.555Z,54.99
2019-01-03T10:47:42.494Z,55.35
2019-01-03T10:50:10.412Z,55.72
2019-01-03T10:52:38.434Z,55.42
2019-01-03T10:55:06.475Z,55.16
2019-01-03T10:57:34.523Z,55.70
2019-01-03T11:00:02.880Z,55.75
2019-01-03T11:02:30.885Z,54.12
2019-01-03T11:05:06.243Z,54.39
2019-01-03T11:07:35.221Z,51.67
2019-01-03T11:10:03.748Z,52.26
2019-01-03T11:12:31.689Z,51.46
2019-01-03T11:15:00.029Z,51.98
2019-01-03T11:17:27.994Z,51.52
2019-01-03T11:19:58.328Z,50.63
2019-01-03T11:22:26.701Z,49.23
2019-01-03T11:24:55.588Z,48.47
2019-01-03T11:27:23.918Z,48.99
2019-01-03T11:29:52.666Z,49.53
2019-01-03T11:32:20.629Z,47.75
2019-01-03T11:34:49.074Z,48.11
2019-01-03T11:37:17.491Z,49.54
2019-01-03T11:39:45.711Z,50.14
2019-01-03T11:42:13.802Z,50.24
2019-01-03T11:44:41.858Z,49.19
2019-01-03T11:47:10.038Z,49.72
2019-01-03T11:49:38.125Z,49.85
2019-01-03T11:52:06.514Z,49.81
2019-01-03T11:54:34.993Z,52.28
2019-01-03T11:57:03.555Z,49.67
2019-01-03T11:59:31.500Z,48.91
2019-01-03T12:02:00.783Z,52.70
2019-01-03T12:04:29.335Z,50.90
2019-01-03T12:06:57.371Z,51.03
2019-01-03T12:09:25.339Z,53.18
2019-01-03T12:11:53.957Z,51.13
2019-01-03T12:14:22.025Z,52.17
2019-01-03T12:16:50.051Z,51.34
2019-01-03T12:19:18.114Z,52.50
2019-01-03T12:21:46.478Z,51.92
2019-01-03T12:24:14.707Z,51.80
2019-01-03T12:26:44.146Z,53.01
2019-01-03T12:29:12.166Z,52.89
2019-01-03T12:31:40.516Z,53.09
2019-01-03T12:34:09.152Z,54.09
2019-01-03T12:36:37.182Z,53.65
2019-01-03T12:39:06.251Z,54.47
2019-01-03T12:41:34.207Z,56.19
2019-01-03T12:44:02.732Z,55.62
2019-01-03T12:46:30.700Z,55.81
2019-01-03T12:48:58.624Z,56.07
2019-01-03T12:51:26.926Z,57.04
2019-01-03T12:53:55.389Z,57.18
2019-01-03T12:56:23.355Z,60.13
2019-01-03T12:58:51.353Z,59.15
2019-01-03T13:01:19.466Z,58.39
2019-01-03T13:03:47.810Z,59.45
2019-01-03T13:06:20.995Z,60.59
2019-01-03T13:08:46.274Z,62.07
2019-01-03T13:11:14.210Z,62.50
2019-01-03T13:13:42.460Z,63.08
2019-01-03T13:16:11.384Z,64.18
2019-01-03T13:18:39.311Z,66.29
2019-01-03T13:21:07.297Z,66.35
2019-01-03T13:23:35.230Z,66.53
2019-01-03T13:26:03.245Z,66.98
2019-01-03T13:28:31.199Z,67.12
2019-01-03T13:30:59.147Z,68.58
2019-01-03T13:33:27.127Z,69.00
2019-01-03T13:35:55.421Z,70.87
2019-01-03T13:38:23.429Z,68.93
2019-01-03T13:40:51.710Z,68.76
2019-01-03T13:43:19.658Z,70.59
2019-01-03T13:45:48.160Z,70.78
2019-01-03T13:48:16.389Z,72.60
2019-01-03T13:50:44.434Z,72.24
2019-01-03T13:53:12.429Z,75.18
2019-01-03T13:55:40.745Z,74.11
2019-01-03T13:58:09.325Z,74.64
2019-01-03T14:00:39.458Z,75.12
2019-01-03T14:03:07.424Z,74.84
2019-01-03T14:05:35.412Z,74.72
2019-01-03T14:08:03.367Z,76.71
2019-01-03T14:10:32.715Z,74.56
2019-01-03T14:13:00.668Z,74.69
2019-01-03T14:15:28.599Z,74.76
2019-01-03T14:17:56.986Z,75.09
2019-01-03T14:20:25.773Z,75.19
2019-01-03T14:22:54.336Z,76.46
2019-01-03T14:25:22.609Z,78.01
2019-01-03T14:27:50.594Z,77.85
2019-01-03T14:30:18.858Z,77.65
2019-01-03T14:32:46.855Z,78.15
2019-01-03T14:35:15.070Z,79.25
2019-01-03T14:37:43.471Z,80.87
2019-01-03T14:40:11.946Z,81.99
2019-01-03T14:42:39.913Z,82.72
2019-01-03T14:45:07.869Z,82.42
2019-01-03T14:47:36.546Z,82.52
2019-01-03T14:50:06.426Z,82.56
2019-01-03T14:52:34.980Z,81.42
2019-01-03T14:55:04.000Z,81.35
2019-01-03T14:57:32.111Z,83.29
2019-01-03T15:00:06.018Z,83.64
2019-01-03T15:02:34.129Z,83.70
2019-01-03T15:05:02.542Z,82.93
2019-01-03T15:07:30.886Z,83.59
2019-01-03T15:09:58.845Z,84.39
2019-01-03T15:12:26.832Z,84.05
2019-01-03T15:14:55.159Z,85.07
2019-01-03T15:17:23.087Z,84.00
2019-01-03T15:19:51.301Z,83.98
2019-01-03T15:22:19.523Z,82.87
2019-01-03T15:24:47.827Z,82.84
2019-01-03T15:27:15.817Z,83.59
2019-01-03T15:29:44.579Z,84.22
2019-01-03T15:32:13.094Z,83.87
2019-01-03T15:34:41.514Z,85.81
2019-01-03T15:37:09.457Z,84.98
2019-01-03T15:39:37.426Z,83.97
2019-01-03T15:42:05.443Z,83.49
2019-01-03T15:44:34.231Z,82.96
2019-01-03T15:47:02.558Z,83.15
2019-01-03T15:49:30.816Z,83.43
2019-01-03T15:51:59.789Z,84.59
2019-01-03T15:54:27.962Z,84.81
2019-01-03T15:56:56.256Z,84.27
2019-01-03T15:59:24.518Z,83.86
2019-01-03T16:01:52.454Z,83.78
2019-01-03T16:04:20.871Z,84.22
2019-01-03T16:06:48.775Z,82.96
2019-01-03T16:09:17.229Z,83.51
2019-01-03T16:11:45.408Z,84.24
2019-01-03T16:14:13.377Z,84.23
2019-01-03T16:16:42.966Z,83.72
2019-01-03T16:19:10.919Z,83.66
2019-01-03T16:21:39.604Z,84.19
2019-01-03T16:24:09.395Z,84.37
2019-01-03T16:26:37.456Z,83.16
2019-01-03T16:29:05.738Z,84.12
2019-01-03T16:31:34.019Z,83.86
2019-01-03T16:34:02.293Z,83.70
2019-01-03T16:36:30.273Z,83.91
2019-01-03T16:38:58.300Z,83.52
2019-01-03T16:41:26.227Z,83.66
2019-01-03T16:43:54.290Z,83.78
2019-01-03T16:46:22.580Z,83.80
2019-01-03T16:48:50.563Z,84.47
2019-01-03T16:51:19.382Z,84.02
2019-01-03T16:53:47.996Z,84.61
2019-01-03T16:56:16.091Z,84.61
2019-01-03T16:58:44.713Z,84.63
2019-01-03T17:01:13.175Z,85.60
2019-01-03T17:03:42.221Z,84.72
2019-01-03T17:06:10.502Z,85.14
2019-01-03T17:08:38.774Z,85.16
2019-01-03T17:11:07.051Z,86.26
2019-01-03T17:13:35.235Z,85.93
2019-01-03T17:16:03.503Z,85.11
2019-01-03T17:18:31.473Z,86.26
2019-01-03T17:20:59.418Z,85.05
2019-01-03T17:23:27.548Z,85.54
2019-01-03T17:25:55.490Z,85.69
2019-01-03T17:28:23.449Z,86.28
2019-01-03T17:30:51.726Z,85.86
2019-01-03T17:33:19.672Z,84.92
2019-01-03T17:35:48.164Z,84.48
2019-01-03T17:38:16.082Z,84.39
2019-01-03T17:40:44.428Z,84.73
2019-01-03T17:43:12.319Z,84.66
2019-01-03T17:45:41.226Z,84.89
2019-01-03T17:48:09.198Z,84.82
2019-01-03T17:50:37.047Z,85.13
2019-01-03T17:53:05.274Z,85.20
2019-01-03T17:55:33.417Z,84.26
2019-01-03T17:58:01.895Z,85.44
2019-01-03T18:00:30.013Z,86.22
2019-01-03T18:02:57.956Z,85.38
2019-01-03T18:05:25.984Z,84.98
2019-01-03T18:07:54.662Z,85.18
2019-01-03T18:10:22.945Z,84.87
2019-01-03T18:12:51.179Z,84.25
2019-01-03T18:15:19.228Z,85.84
2019-01-03T18:17:47.159Z,86.07
2019-01-03T18:20:17.075Z,85.16
2019-01-03T18:22:45.320Z,83.25
2019-01-03T18:25:13.544Z,86.19
2019-01-03T18:27:41.879Z,85.26
2019-01-03T18:30:12.247Z,84.03
2019-01-03T18:32:41.244Z,84.04
2019-01-03T18:35:09.245Z,83.99
2019-01-03T18:37:37.176Z,84.96
2019-01-03T18:40:07.841Z,86.04
2019-01-03T18:42:36.626Z,84.79
2019-01-03T18:45:07.869Z,82.52
2019-01-03T18:47:36.174Z,82.30
2019-01-03T18:50:06.839Z,83.40
2019-01-03T18:52:35.235Z,82.77
2019-01-03T18:55:03.618Z,84.51
2019-01-03T18:57:31.897Z,82.95
2019-01-03T19:00:00.251Z,83.88
2019-01-03T19:02:28.547Z,82.04
2019-01-03T19:04:57.221Z,84.53
2019-01-03T19:07:25.573Z,83.49
2019-01-03T19:09:53.718Z,83.84
2019-01-03T19:12:21.769Z,83.59
2019-01-03T19:14:49.920Z,84.11
2019-01-03T19:17:18.272Z,87.79
2019-01-03T19:19:47.285Z,87.12
2019-01-03T19:22:17.754Z,89.23
2019-01-03T19:24:46.453Z,88.52
2019-01-03T19:27:14.578Z,89.50
2019-01-03T19:29:42.815Z,89.15
2019-01-03T19:32:11.125Z,88.16
2019-01-03T19:34:39.409Z,86.72
2019-01-03T19:37:07.881Z,87.07
2019-01-03T19:39:35.790Z,89.65
2019-01-03T19:42:03.786Z,87.45
2019-01-03T19:44:32.448Z,86.64
2019-01-03T19:47:00.509Z,89.46
2019-01-03T19:49:28.459Z,90.91
2019-01-03T19:51:57.575Z,90.52
2019-01-03T19:54:25.713Z,90.25
2019-01-03T19:56:53.713Z,90.56
2019-01-03T19:59:21.674Z,88.28
2019-01-03T20:01:49.622Z,88.22
2019-01-03T20:04:18.676Z,86.88
2019-01-03T20:06:49.644Z,87.74
2019-01-03T20:09:17.673Z,85.35
2019-01-03T20:11:46.511Z,84.23
2019-01-03T20:14:15.322Z,85.85
2019-01-03T20:16:44.378Z,85.26
2019-01-03T20:19:12.495Z,85.53
2019-01-03T20:21:40.684Z,85.56
2019-01-03T20:24:08.904Z,85.84
2019-01-03T20:26:36.963Z,85.73
2019-01-03T20:29:04.961Z,85.93
2019-01-03T20:31:32.923Z,86.50
2019-01-03T20:34:08.947Z,86.41
2019-01-03T20:36:39.749Z,86.56
2019-01-03T20:39:10.374Z,87.26
2019-01-03T20:41:38.707Z,87.14
2019-01-03T20:44:08.555Z,88.53
2019-01-03T20:46:42.908Z,88.14
2019-01-03T20:49:11.929Z,87.39
2019-01-03T20:51:43.104Z,87.67
2019-01-03T20:54:12.408Z,85.53
2019-01-03T20:56:40.554Z,85.25
2019-01-03T20:59:10.158Z,84.87
2019-01-03T21:01:51.826Z,86.21
2019-01-03T21:04:24.497Z,88.15
2019-01-03T21:06:53.892Z,87.15
2019-01-03T21:09:28.642Z,86.82
2019-01-03T21:12:13.858Z,85.86
2019-01-03T21:14:36.537Z,86.26
2019-01-03T21:17:04.912Z,87.74
2019-01-03T21:19:34.021Z,88.76
2019-01-03T21:22:02.397Z,86.77
2019-01-03T21:24:30.788Z,87.76
2019-01-03T21:27:25.838Z,88.73
2019-01-03T21:30:04.282Z,86.98
2019-01-03T21:32:33.962Z,86.95
2019-01-03T21:35:02.249Z,87.23
2019-01-03T21:37:31.292Z,86.78
2019-01-03T21:39:59.261Z,87.55
2019-01-03T21:42:27.206Z,86.81
2019-01-03T21:44:55.462Z,86.79
2019-01-03T21:47:23.658Z,87.14
2019-01-03T21:49:52.003Z,87.43
2019-01-03T21:52:20.744Z,87.19
2019-01-03T21:54:49.768Z,87.31
2019-01-03T21:57:18.160Z,87.85
2019-01-03T21:59:46.097Z,88.03
2019-01-03T22:02:14.075Z,86.87
2019-01-03T22:04:43.071Z,86.53
2019-01-03T22:07:11.163Z,86.71
2019-01-03T22:09:39.882Z,86.84
2019-01-03T22:12:07.868Z,88.35
2019-01-03T22:14:36.407Z,87.19
2019-01-03T22:17:04.952Z,86.45
2019-01-03T22:19:32.959Z,87.58
2019-01-03T22:22:01.879Z,87.16
2019-01-03T22:24:31.684Z,87.83
2019-01-03T22:26:59.764Z,87.24
2019-01-03T22:29:28.566Z,86.89
2019-01-03T22:31:58.524Z,85.86
2019-01-03T22:34:26.914Z,86.03
2019-01-03T22:36:54.979Z,87.52
2019-01-03T22:39:23.480Z,87.72
2019-01-03T22:41:51.547Z,86.97
2019-01-03T22:44:19.695Z,86.69
2019-01-03T22:46:47.886Z,84.70
2019-01-03T22:49:16.296Z,86.05
2019-01-03T22:51:44.356Z,85.99
2019-01-03T22:54:12.771Z,86.29
2019-01-03T22:56:41.290Z,86.48
2019-01-03T22:59:09.294Z,85.71
2019-01-03T23:01:37.643Z,86.06
2019-01-03T23:04:06.844Z,86.02
2019-01-03T23:06:35.891Z,86.91
2019-01-03T23:09:06.453Z,87.14
2019-01-03T23:11:37.016Z,85.84
2019-01-03T23:14:06.361Z,84.78
2019-01-03T23:16:35.558Z,85.11
2019-01-03T23:19:05.507Z,86.28
2019-01-03T23:21:33.971Z,86.19
2019-01-03T23:24:01.923Z,86.79
2019-01-03T23:26:31.864Z,86.40
2019-01-03T23:29:02.502Z,85.94
2019-01-03T23:31:31.251Z,85.01
2019-01-03T23:33:59.846Z,84.71
2019-01-03T23:36:27.784Z,84.62
2019-01-03T23:38:56.040Z,83.71
2019-01-03T23:41:24.162Z,84.23
2019-01-03T23:43:52.749Z,84.98
2019-01-03T23:46:20.714Z,85.47
2019-01-03T23:48:48.635Z,84.75
2019-01-03T23:51:16.742Z,85.47
2019-01-03T23:53:44.725Z,85.56
2019-01-03T23:56:13.044Z,84.79
2019-01-03T23:58:41.420Z,85.16
